Skip to main content.
Our real time weather data display below is updated continuously via our 24/7 live data feed.
 TIME   TEMPERATURE   WINDSPEED   DIRECTION   HUMIDITY   BAROMETER   RAINFALL 
17:45 16.0°C (60.8°F) 11.1 kmh (6.9 mph) WSW 72% 1014.9hPa (29.97 inHg) 0.0mm (0.00 in.)
16:45 17.0°C (62.6 °F) 9.3 kmh (5.8 mph) W 72% 1014.9hPa (29.97 inHg) 0.0mm (0.00 in.)
15:45 19.0°C (66.2 °F) 14.8 kmh (9.2 mph) WSW 68% 1014.9hPa (29.97 inHg) 0.0mm (0.00 in.)
14:45 18.0°C (64.4 °F) 9.3 kmh (5.8 mph) WSW 67% 1014.9hPa (29.97 inHg) 0.0mm (0.00 in.)
13:45 18.0°C (64.4 °F) 11.1 kmh (6.9 mph) WSW 55% 1014.9hPa (29.97 inHg) 0.0mm (0.00 in.)
12:45 19.0°C (66.2 °F) 11.1 kmh (6.9 mph) WSW 48% 1015.9hPa (30.00 inHg) 0.0mm (0.00 in.)
11:45 18.0°C (64.4 °F) 9.3 kmh (5.8 mph) WSW 48% 1015.9hPa (30.00 inHg) 0.0mm (0.00 in.)
10:45 19.0°C (66.2 °F) 9.3 kmh (5.8 mph) WSW 48% 1016.9hPa (30.03 inHg) 0.0mm (0.00 in.)
9:45 18.0°C (64.4 °F) 3.7 kmh (2.3 mph) SSW 63% 1015.9hPa (30.00 inHg) 0.0mm (0.00 in.)
8:45 13.0°C (55.4 °F) 7.4 kmh (4.6 mph) W 71% 1015.9hPa (30.00 inHg) 0.0mm (0.00 in.)
7:45 12.0°C (53.6 °F) 7.4 kmh (4.6 mph) W 71% 1015.9hPa (30.00 inHg) 0.0mm (0.00 in.)
6:45 12.0°C (53.6 °F) 9.3 kmh (5.8 mph) WNW 71% 1015.9hPa (30.00 inHg) 0.0mm (0.00 in.)
5:45 12.0°C (53.6 °F) 9.3 kmh (5.8 mph) WNW 76% 1015.9hPa (30.00 inHg) 0.0mm (0.00 in.)
4:45 11.0°C (51.8 °F) 7.4 kmh (4.6 mph) WNW 87% 1015.9hPa (30.00 inHg) 0.0mm (0.00 in.)
3:45 11.0°C (51.8 °F) 3.7 kmh (2.3 mph) W 81% 1015.9hPa (30.00 inHg) 0.0mm (0.00 in.)
2:45 10.0°C (50.0 °F) 7.4 kmh (4.6 mph) W 87% 1016.9hPa (30.03 inHg) 0.0mm (0.00 in.)
1:45 11.0°C (51.8 °F) 1.9 kmh (1.2 mph) W 87% 1016.9hPa (30.03 inHg) 0.0mm (0.00 in.)
0:45 11.0°C (51.8 °F) 3.7 kmh (2.3 mph) SW 87% 1016.9hPa (30.03 inHg) 0.0mm (0.00 in.)
23:45 11.0°C (51.8 °F) 5.6 kmh (3.5 mph) WNW 87% 1016.9hPa (30.03 inHg) 0.0mm (0.00 in.)
22:45 12.0°C (53.6 °F) 3.7 kmh (2.3 mph) WNW 81% 1016.9hPa (30.03 inHg) 0.0mm (0.00 in.)
21:45 12.0°C (53.6 °F) 5.6 kmh (3.5 mph) NNW 81% 1016.9hPa (30.03 inHg) 0.0mm (0.00 in.)
20:45 12.0°C (53.6 °F) 5.6 kmh (3.5 mph) NW 76% 1016.9hPa (30.03 inHg) 0.0mm (0.00 in.)
19:45 13.0°C (55.4 °F) 5.6 kmh (3.5 mph) NW 76% 1016.9hPa (30.03 inHg) 0.0mm (0.00 in.)
18:45 13.0°C (55.4 °F) 7.4 kmh (4.6 mph) WNW 76% 1016.9hPa (30.03 inHg) 0.0mm (0.00 in.)